createdAt,value
2019-02-20T00:00:10.021Z,55.72
2019-02-20T00:03:01.214Z,55.78
2019-02-20T00:05:51.300Z,55.78
2019-02-20T00:08:41.469Z,55.77
2019-02-20T00:11:31.154Z,55.85
2019-02-20T00:14:21.111Z,55.96
2019-02-20T00:17:11.173Z,56.13
2019-02-20T00:20:01.283Z,56.13
2019-02-20T00:22:52.715Z,56.13
2019-02-20T00:25:42.727Z,56.22
2019-02-20T00:28:32.702Z,56.28
2019-02-20T00:31:22.176Z,56.15
2019-02-20T00:34:11.811Z,56.16
2019-02-20T00:37:01.632Z,56.32
2019-02-20T00:39:51.443Z,56.20
2019-02-20T00:42:41.737Z,56.23
2019-02-20T00:45:41.148Z,56.45
2019-02-20T00:48:39.672Z,56.64
2019-02-20T00:51:58.225Z,56.63
2019-02-20T00:54:48.119Z,56.79
2019-02-20T00:57:38.498Z,56.71
2019-02-20T01:00:28.461Z,56.67
2019-02-20T01:03:18.238Z,56.72
2019-02-20T01:06:08.041Z,56.73
2019-02-20T01:08:58.125Z,56.68
2019-02-20T01:11:48.112Z,56.67
2019-02-20T01:14:37.981Z,56.99
2019-02-20T01:17:28.133Z,57.00
2019-02-20T01:20:18.166Z,57.14
2019-02-20T01:23:08.251Z,57.57
2019-02-20T01:25:58.712Z,57.43
2019-02-20T01:28:48.910Z,57.56
2019-02-20T01:31:38.668Z,57.70
2019-02-20T01:34:28.538Z,57.46
2019-02-20T01:37:18.619Z,57.65
2019-02-20T01:40:09.134Z,57.59
2019-02-20T01:42:58.939Z,57.65
2019-02-20T01:45:49.062Z,57.64
2019-02-20T01:48:38.835Z,57.58
2019-02-20T01:51:28.615Z,57.70
2019-02-20T01:54:18.574Z,57.61
2019-02-20T01:57:08.710Z,57.87
2019-02-20T01:59:59.966Z,58.00
2019-02-20T02:02:50.172Z,57.85
2019-02-20T02:05:40.490Z,57.74
2019-02-20T02:08:30.787Z,57.72
2019-02-20T02:11:21.100Z,57.79
2019-02-20T02:14:10.941Z,57.79
2019-02-20T02:17:02.090Z,57.84
2019-02-20T02:19:53.858Z,57.89
2019-02-20T02:22:43.489Z,58.48
2019-02-20T02:25:33.134Z,58.32
2019-02-20T02:28:23.421Z,58.29
2019-02-20T02:31:13.438Z,58.27
2019-02-20T02:34:03.315Z,58.20
2019-02-20T02:36:53.525Z,58.16
2019-02-20T02:39:43.975Z,58.28
2019-02-20T02:42:34.017Z,58.56
2019-02-20T02:45:23.757Z,58.23
2019-02-20T02:48:13.679Z,58.15
2019-02-20T02:51:03.453Z,58.04
2019-02-20T02:53:53.293Z,57.98
2019-02-20T02:56:43.145Z,57.93
2019-02-20T02:59:33.772Z,57.88
2019-02-20T03:02:23.606Z,57.84
2019-02-20T03:05:13.474Z,57.81
2019-02-20T03:08:03.112Z,57.76
2019-02-20T03:10:53.186Z,57.77
2019-02-20T03:13:43.202Z,57.73
2019-02-20T03:16:32.516Z,57.79
2019-02-20T03:19:22.363Z,57.74
2019-02-20T03:22:12.566Z,57.83
2019-02-20T03:25:02.179Z,57.82
2019-02-20T03:27:51.810Z,57.83
2019-02-20T03:30:41.881Z,58.03
2019-02-20T03:33:31.653Z,57.96
2019-02-20T03:36:21.493Z,58.47
2019-02-20T03:39:10.974Z,58.40
2019-02-20T03:42:01.152Z,58.38
2019-02-20T03:44:50.888Z,58.59
2019-02-20T03:47:40.808Z,58.31
2019-02-20T03:50:30.633Z,58.31
2019-02-20T03:53:20.301Z,58.30
2019-02-20T03:56:10.809Z,58.46
2019-02-20T03:59:00.892Z,58.42
2019-02-20T04:01:50.642Z,58.51
2019-02-20T04:04:40.555Z,58.55
2019-02-20T04:07:30.751Z,58.71
2019-02-20T04:10:20.872Z,58.52
2019-02-20T04:13:10.454Z,58.89
2019-02-20T04:16:00.433Z,58.66
2019-02-20T04:18:50.491Z,58.75
2019-02-20T04:21:40.603Z,58.95
2019-02-20T04:24:30.207Z,58.83
2019-02-20T04:27:19.713Z,59.08
2019-02-20T04:30:10.465Z,59.00
2019-02-20T04:33:00.428Z,59.07
2019-02-20T04:35:50.179Z,58.91
2019-02-20T04:38:39.930Z,58.78
2019-02-20T04:41:30.276Z,58.85
2019-02-20T04:44:20.555Z,58.73
2019-02-20T04:47:10.231Z,58.56
2019-02-20T04:50:00.364Z,58.38
2019-02-20T04:52:50.572Z,58.30
2019-02-20T04:55:40.285Z,58.28
2019-02-20T04:58:30.107Z,58.26
2019-02-20T05:01:19.834Z,58.15
2019-02-20T05:04:09.956Z,58.22
2019-02-20T05:07:00.015Z,58.18
2019-02-20T05:09:50.147Z,58.08
2019-02-20T05:12:40.199Z,58.22
2019-02-20T05:15:30.034Z,57.95
2019-02-20T05:18:20.261Z,57.77
2019-02-20T05:21:09.985Z,57.68
2019-02-20T05:23:59.812Z,57.62
2019-02-20T05:26:49.771Z,57.56
2019-02-20T05:29:39.603Z,57.47
2019-02-20T05:32:29.447Z,57.45
2019-02-20T05:35:19.572Z,57.36
2019-02-20T05:38:11.120Z,57.23
2019-02-20T05:41:00.854Z,57.25
2019-02-20T05:43:51.013Z,57.08
2019-02-20T05:46:40.719Z,56.93
2019-02-20T05:49:30.410Z,56.83
2019-02-20T05:52:20.434Z,56.91
2019-02-20T05:55:10.485Z,56.77
2019-02-20T05:58:00.387Z,56.68
2019-02-20T06:00:50.279Z,56.63
2019-02-20T06:03:42.197Z,56.54
2019-02-20T06:06:32.740Z,56.53
2019-02-20T06:09:22.333Z,56.46
2019-02-20T06:12:12.410Z,56.37
2019-02-20T06:15:02.389Z,56.28
2019-02-20T06:17:53.414Z,56.21
2019-02-20T06:20:43.596Z,56.13
2019-02-20T06:23:33.277Z,56.08
2019-02-20T06:26:22.762Z,55.97
2019-02-20T06:29:12.913Z,55.97
2019-02-20T06:32:02.711Z,55.93
2019-02-20T06:34:52.570Z,55.88
2019-02-20T06:37:42.530Z,55.84
2019-02-20T06:40:32.537Z,55.81
2019-02-20T06:43:22.222Z,55.74
2019-02-20T06:46:13.400Z,55.69
2019-02-20T06:49:03.498Z,55.65
2019-02-20T06:51:53.376Z,55.64
2019-02-20T06:54:43.341Z,55.60
2019-02-20T06:57:33.116Z,55.53
2019-02-20T07:00:23.608Z,55.60
2019-02-20T07:03:13.205Z,55.58
2019-02-20T07:06:38.801Z,55.49
2019-02-20T07:10:41.941Z,55.39
2019-02-20T07:14:50.623Z,55.47
2019-02-20T07:18:45.019Z,55.65
2019-02-20T07:22:37.842Z,55.61
2019-02-20T07:25:48.250Z,55.68
2019-02-20T07:29:26.492Z,55.66
2019-02-20T07:32:18.181Z,55.55
2019-02-20T07:35:10.673Z,55.39
2019-02-20T07:38:00.691Z,55.38
2019-02-20T07:40:51.548Z,55.19
2019-02-20T07:43:41.634Z,55.14
2019-02-20T07:46:31.025Z,55.05
2019-02-20T07:49:20.415Z,54.98
2019-02-20T07:52:10.355Z,54.86
2019-02-20T07:55:01.371Z,54.75
2019-02-20T07:57:51.564Z,54.69
2019-02-20T08:00:41.445Z,54.54
2019-02-20T08:03:31.502Z,54.49
2019-02-20T08:06:21.237Z,54.32
2019-02-20T08:09:11.120Z,54.20
2019-02-20T08:12:01.697Z,54.14
2019-02-20T08:14:51.319Z,54.14
2019-02-20T08:17:41.058Z,54.09
2019-02-20T08:20:31.806Z,54.03
2019-02-20T08:23:21.720Z,53.96
2019-02-20T08:26:12.953Z,53.86
2019-02-20T08:29:02.756Z,53.77
2019-02-20T08:31:53.866Z,53.68
2019-02-20T08:34:43.764Z,53.56
2019-02-20T08:37:34.009Z,53.47
2019-02-20T08:40:24.050Z,53.33
2019-02-20T08:43:13.943Z,53.01
2019-02-20T08:46:04.267Z,52.83
2019-02-20T08:48:54.010Z,52.36
2019-02-20T08:51:43.859Z,51.87
2019-02-20T08:54:33.660Z,51.49
2019-02-20T08:57:23.175Z,51.15
2019-02-20T09:00:13.808Z,51.05
2019-02-20T09:03:04.004Z,50.65
2019-02-20T09:05:53.725Z,50.52
2019-02-20T09:08:44.368Z,50.09
2019-02-20T09:11:34.469Z,49.83
2019-02-20T09:14:24.447Z,49.73
2019-02-20T09:17:14.158Z,49.56
2019-02-20T09:20:04.708Z,49.57
2019-02-20T09:22:55.014Z,49.20
2019-02-20T09:25:44.690Z,49.14
2019-02-20T09:28:34.910Z,49.05
2019-02-20T09:31:24.367Z,48.63
2019-02-20T09:34:13.886Z,47.91
2019-02-20T09:37:03.844Z,47.63
2019-02-20T09:39:53.939Z,47.07
2019-02-20T09:42:46.396Z,47.31
2019-02-20T09:45:41.972Z,46.87
2019-02-20T09:48:28.880Z,46.72
2019-02-20T09:51:18.599Z,46.83
2019-02-20T09:54:08.666Z,46.54
2019-02-20T09:56:58.532Z,46.01
2019-02-20T09:59:48.747Z,45.77
2019-02-20T10:02:38.699Z,45.46
2019-02-20T10:05:28.459Z,44.93
2019-02-20T10:08:18.452Z,44.32
2019-02-20T10:11:08.621Z,43.71
2019-02-20T10:13:58.919Z,43.69
2019-02-20T10:16:49.000Z,43.92
2019-02-20T10:19:39.147Z,43.68
2019-02-20T10:22:28.737Z,43.89
2019-02-20T10:25:18.351Z,43.37
2019-02-20T10:28:08.715Z,42.93
2019-02-20T10:30:58.691Z,41.76
2019-02-20T10:33:48.741Z,42.10
2019-02-20T10:36:38.442Z,42.12
2019-02-20T10:39:28.561Z,41.90
2019-02-20T10:42:18.739Z,41.76
2019-02-20T10:45:09.463Z,41.37
2019-02-20T10:47:59.521Z,41.37
2019-02-20T10:50:49.068Z,40.39
2019-02-20T10:53:38.878Z,40.63
2019-02-20T10:56:29.228Z,40.54
2019-02-20T10:59:18.901Z,40.36
2019-02-20T11:02:08.803Z,39.70
2019-02-20T11:04:58.830Z,39.59
2019-02-20T11:07:48.827Z,38.72
2019-02-20T11:10:39.122Z,37.53
2019-02-20T11:13:29.170Z,37.17
2019-02-20T11:16:18.654Z,36.54
2019-02-20T11:19:08.724Z,35.79
2019-02-20T11:21:58.909Z,34.55
2019-02-20T11:24:48.767Z,34.50
2019-02-20T11:27:39.527Z,33.59
2019-02-20T11:30:29.542Z,34.04
2019-02-20T11:33:19.299Z,33.46
2019-02-20T11:36:09.387Z,32.49
2019-02-20T11:38:59.506Z,33.36
2019-02-20T11:41:49.669Z,32.83
2019-02-20T11:44:39.447Z,33.16
2019-02-20T11:47:29.282Z,33.58
2019-02-20T11:50:19.592Z,34.01
2019-02-20T11:53:09.809Z,32.87
2019-02-20T11:55:59.621Z,33.39
2019-02-20T11:58:49.366Z,32.82
2019-02-20T12:01:38.658Z,32.34
2019-02-20T12:04:31.401Z,32.03
2019-02-20T12:07:21.067Z,32.42
2019-02-20T12:10:12.661Z,31.26
2019-02-20T12:13:02.932Z,31.04
2019-02-20T12:15:52.867Z,30.63
2019-02-20T12:18:42.559Z,29.83
2019-02-20T12:21:32.544Z,29.25
2019-02-20T12:24:22.499Z,29.69
2019-02-20T12:27:12.844Z,29.21
2019-02-20T12:30:02.356Z,28.98
2019-02-20T12:32:53.873Z,28.70
2019-02-20T12:35:44.242Z,28.62
2019-02-20T12:38:34.370Z,29.04
2019-02-20T12:41:24.441Z,29.36
2019-02-20T12:44:14.536Z,29.56
2019-02-20T12:47:04.604Z,29.22
2019-02-20T12:49:54.871Z,29.58
2019-02-20T12:52:45.199Z,29.20
2019-02-20T12:55:35.514Z,28.95
2019-02-20T12:58:25.602Z,28.97
2019-02-20T13:01:15.615Z,28.96
2019-02-20T13:04:05.482Z,29.48
2019-02-20T13:06:59.362Z,30.01
2019-02-20T13:09:47.580Z,30.80
2019-02-20T13:12:37.805Z,31.60
2019-02-20T13:15:27.584Z,31.97
2019-02-20T13:18:17.553Z,32.56
2019-02-20T13:21:08.100Z,33.20
2019-02-20T13:23:57.912Z,33.71
2019-02-20T13:26:52.809Z,34.14
2019-02-20T13:29:39.170Z,34.45
2019-02-20T13:32:29.362Z,34.64
2019-02-20T13:35:19.446Z,34.81
2019-02-20T13:38:10.565Z,34.72
2019-02-20T13:41:00.438Z,34.31
2019-02-20T13:43:51.252Z,34.27
2019-02-20T13:46:41.441Z,33.96
2019-02-20T13:49:31.587Z,34.17
2019-02-20T13:52:21.290Z,34.33
2019-02-20T13:55:11.448Z,34.67
2019-02-20T13:58:01.240Z,35.12
2019-02-20T14:00:51.392Z,35.50
2019-02-20T14:03:42.577Z,35.91
2019-02-20T14:06:32.482Z,36.25
2019-02-20T14:09:22.349Z,36.64
2019-02-20T14:12:12.612Z,36.88
2019-02-20T14:15:02.853Z,37.15
2019-02-20T14:17:52.907Z,37.32
2019-02-20T14:20:43.199Z,37.44
2019-02-20T14:23:33.229Z,37.63
2019-02-20T14:26:23.109Z,37.74
2019-02-20T14:29:13.263Z,37.75
2019-02-20T14:32:03.102Z,37.76
2019-02-20T14:34:52.897Z,37.80
2019-02-20T14:37:44.139Z,37.97
2019-02-20T14:40:34.106Z,38.10
2019-02-20T14:43:24.500Z,38.16
2019-02-20T14:46:14.783Z,38.22
2019-02-20T14:49:04.701Z,38.29
2019-02-20T14:51:55.728Z,38.34
2019-02-20T14:54:45.523Z,38.44
2019-02-20T14:57:35.356Z,38.55
2019-02-20T15:00:25.457Z,38.54
2019-02-20T15:03:15.142Z,38.64
2019-02-20T15:06:05.474Z,38.81
2019-02-20T15:08:55.703Z,38.94
2019-02-20T15:11:45.490Z,38.97
2019-02-20T15:14:35.400Z,39.02
2019-02-20T15:17:25.123Z,39.12
2019-02-20T15:20:14.836Z,39.27
2019-02-20T15:23:04.915Z,39.47
2019-02-20T15:25:54.711Z,39.71
2019-02-20T15:28:44.400Z,39.90
2019-02-20T15:31:34.580Z,40.14
2019-02-20T15:34:25.432Z,40.23
2019-02-20T15:37:21.071Z,40.43
2019-02-20T15:40:12.822Z,40.67
2019-02-20T15:43:10.059Z,40.77
2019-02-20T15:46:12.005Z,40.98
2019-02-20T15:49:08.068Z,41.09
2019-02-20T15:51:59.425Z,41.22
2019-02-20T15:54:49.867Z,41.40
2019-02-20T15:57:40.162Z,41.54
2019-02-20T16:00:30.404Z,41.77
2019-02-20T16:03:21.060Z,41.87
2019-02-20T16:06:11.764Z,41.95
2019-02-20T16:09:01.995Z,42.13
2019-02-20T16:11:53.498Z,42.18
2019-02-20T16:14:43.345Z,42.47
2019-02-20T16:17:33.283Z,42.64
2019-02-20T16:20:23.400Z,42.91
2019-02-20T16:23:13.333Z,42.79
2019-02-20T16:26:03.057Z,42.88
2019-02-20T16:28:53.097Z,42.95
2019-02-20T16:31:43.376Z,43.08
2019-02-20T16:34:32.976Z,43.31
2019-02-20T16:37:22.699Z,43.31
2019-02-20T16:40:13.525Z,43.49
2019-02-20T16:43:03.906Z,43.53
2019-02-20T16:45:54.141Z,43.56
2019-02-20T16:48:44.290Z,43.68
2019-02-20T16:51:34.308Z,44.87
2019-02-20T16:54:24.487Z,45.00
2019-02-20T16:57:14.240Z,45.48
2019-02-20T17:00:05.745Z,46.01
2019-02-20T17:02:56.877Z,45.41
2019-02-20T17:05:48.501Z,45.03
2019-02-20T17:08:38.841Z,45.03
2019-02-20T17:11:28.393Z,45.02
2019-02-20T17:14:17.970Z,44.90
2019-02-20T17:17:08.349Z,44.78
2019-02-20T17:19:58.168Z,44.83
2019-02-20T17:22:48.050Z,44.90
2019-02-20T17:25:38.582Z,44.77
2019-02-20T17:28:28.524Z,44.66
2019-02-20T17:31:18.406Z,44.63
2019-02-20T17:34:08.263Z,44.63
2019-02-20T17:36:58.520Z,44.67
2019-02-20T17:39:48.660Z,44.75
2019-02-20T17:42:38.317Z,44.87
2019-02-20T17:45:28.415Z,45.02
2019-02-20T17:48:19.204Z,45.11
2019-02-20T17:51:09.675Z,45.16
2019-02-20T17:53:59.851Z,45.28
2019-02-20T17:56:49.961Z,45.34
2019-02-20T17:59:38.968Z,45.37
2019-02-20T18:02:28.762Z,45.38
2019-02-20T18:05:18.690Z,45.42
2019-02-20T18:08:08.568Z,45.46
2019-02-20T18:10:58.763Z,45.57
2019-02-20T18:13:47.914Z,45.51
2019-02-20T18:16:37.812Z,45.50
2019-02-20T18:19:28.760Z,45.54
2019-02-20T18:22:19.506Z,45.61
2019-02-20T18:25:10.012Z,45.74
2019-02-20T18:27:59.712Z,45.74
2019-02-20T18:30:50.063Z,45.75
2019-02-20T18:33:40.980Z,45.76
2019-02-20T18:36:31.237Z,45.85
2019-02-20T18:39:21.598Z,45.88
2019-02-20T18:42:11.391Z,46.00
2019-02-20T18:45:01.091Z,45.99
2019-02-20T18:47:50.804Z,46.06
2019-02-20T18:50:40.583Z,46.13
2019-02-20T18:53:30.989Z,46.13
2019-02-20T18:56:21.954Z,46.21
2019-02-20T18:59:11.736Z,46.35
2019-02-20T19:02:02.140Z,46.30
2019-02-20T19:04:52.382Z,46.19
2019-02-20T19:07:42.755Z,46.28
2019-02-20T19:10:37.023Z,46.39
2019-02-20T19:14:01.904Z,46.29
2019-02-20T19:18:17.120Z,46.30
2019-02-20T19:21:39.941Z,46.39
2019-02-20T19:25:47.076Z,46.27
2019-02-20T19:29:13.467Z,46.28
2019-02-20T19:32:47.087Z,46.26
2019-02-20T19:36:40.917Z,46.37
2019-02-20T19:39:59.145Z,46.33
2019-02-20T19:43:27.987Z,46.55
2019-02-20T19:47:06.929Z,46.70
2019-02-20T19:50:14.552Z,46.64
2019-02-20T19:53:29.766Z,46.67
2019-02-20T19:57:22.131Z,46.70
2019-02-20T20:01:01.386Z,46.62
2019-02-20T20:05:09.874Z,46.81
2019-02-20T20:09:18.234Z,46.75
2019-02-20T20:12:57.320Z,47.09
2019-02-20T20:16:59.920Z,47.36
2019-02-20T20:20:21.737Z,47.31
2019-02-20T20:23:41.553Z,47.39
2019-02-20T20:27:56.491Z,47.48
2019-02-20T20:31:23.314Z,47.73
2019-02-20T20:35:27.511Z,47.72
2019-02-20T20:38:59.440Z,47.73
2019-02-20T20:42:25.325Z,47.71
2019-02-20T20:45:49.974Z,47.91
2019-02-20T20:49:16.109Z,47.94
2019-02-20T20:53:05.436Z,47.97
2019-02-20T20:56:31.476Z,47.95
2019-02-20T21:00:08.200Z,48.05
2019-02-20T21:03:05.786Z,48.23
2019-02-20T21:06:41.937Z,48.12
2019-02-20T21:09:47.830Z,48.25
2019-02-20T21:13:27.231Z,48.22
2019-02-20T21:17:08.782Z,48.22
2019-02-20T21:20:36.622Z,48.40
2019-02-20T21:24:31.575Z,48.41
2019-02-20T21:28:14.119Z,48.43
2019-02-20T21:31:25.723Z,48.56
2019-02-20T21:34:52.357Z,48.70
2019-02-20T21:38:56.102Z,48.82
2019-02-20T21:42:30.618Z,48.95
2019-02-20T21:45:41.171Z,49.03
2019-02-20T21:49:11.319Z,49.23
2019-02-20T21:52:43.158Z,49.34
2019-02-20T21:56:41.530Z,49.53
2019-02-20T22:00:27.774Z,49.79
2019-02-20T22:03:55.819Z,49.67
2019-02-20T22:07:30.608Z,49.76
2019-02-20T22:10:57.577Z,49.79
2019-02-20T22:14:29.542Z,50.15
2019-02-20T22:17:55.092Z,50.01
2019-02-20T22:21:40.931Z,49.98
2019-02-20T22:25:11.629Z,50.08
2019-02-20T22:28:45.276Z,50.11
2019-02-20T22:32:07.914Z,50.40
2019-02-20T22:35:19.255Z,50.23
2019-02-20T22:39:11.836Z,50.40
2019-02-20T22:42:45.130Z,50.51
2019-02-20T22:45:54.973Z,50.54
2019-02-20T22:49:14.137Z,50.72
2019-02-20T22:52:26.962Z,50.99
2019-02-20T22:55:57.080Z,51.04
2019-02-20T22:59:46.655Z,51.08
2019-02-20T23:03:03.986Z,51.28
2019-02-20T23:06:45.362Z,51.15
2019-02-20T23:10:24.313Z,51.14
2019-02-20T23:14:05.584Z,51.07
2019-02-20T23:16:55.779Z,51.53
2019-02-20T23:19:45.409Z,51.57
2019-02-20T23:22:35.513Z,51.49
2019-02-20T23:25:25.176Z,51.37
2019-02-20T23:28:14.893Z,51.27
2019-02-20T23:31:04.866Z,51.28
2019-02-20T23:33:54.760Z,51.21
2019-02-20T23:36:44.300Z,51.23
2019-02-20T23:39:34.692Z,51.40
2019-02-20T23:42:24.745Z,51.47
2019-02-20T23:45:14.507Z,51.58
2019-02-20T23:48:04.952Z,51.50
2019-02-20T23:50:55.882Z,51.38
2019-02-20T23:53:45.816Z,51.37
2019-02-20T23:56:35.590Z,51.32
2019-02-20T23:59:25.359Z,51.42
